Mc Grath, Alaska
Current Conditions -  °F | °C
As of 2:53 PM on Thursday 27 Nov 2014 (Local Time) from PAMC Reporting Station
Broken Clouds Broken Clouds  
Wind Chill: -17°   Ceiling: 2200
Heat Index: -17°   Visibility: 10mi
Dew Point: -19°   Wind: 3mph
Humidity: 83%   Direction: 70°ENE
Pressure: 30.25"   Gusts: NA
Location:  63.1005°N, 155.153°W
Report Text: PAMC 272353Z 07003KT 10SM BKN022 M17/M19 A3025 RMK AO2 SLP255 T11721194 11167 21200 56013
Loading
Personal Weather Stations






























Interactive Weather Map New forecast layout! Learn more

10-Day Weather Forecast

Advertisements
Track Severe Weather on mobile